< < Back
Terminal Aerodrome Forecast


Current Version              Previous Versions:   1  2  3  4  5  6  7  8  9  

Terminal Aerodrome Forecast

493
FTUS44 KBMX 282340
TAFANB
TAF
KANB 282340Z 2900/2924 24005KT P6SM SCT060
     FM290200 04004KT P6SM SKC
     FM291100 11004KT P6SM SKC=



Latest METAR

426
SAUS70 KWBC 291000 RRF
MTRANB
METAR KANB 290953Z AUTO 00000KT 10SM CLR 15/14 A3002 RMK AO2 SLP158
T01500139


USA.gov is the U.S. government's official web portal to all federal, state and local government web resources and services.